Aérodrome :
LOGIN :

S'inscrire | Disclaimer

   EN    FR    IT 

 










Légende :    VFR   VFR Marginal   IFR   IFR Intensif   IFR Très Intensif
Visi : 
Plafond : 
>= 8 km
>= 3000ft
5 à 8 km
1000 à 3000 ft
1500m à 5 km
500 à 1000 ft
800 à 1500m
200 à 500 ft
< 800m
< 200 ft
Symboles :   Orages  Brouillard  Fortes neiges  Fortes précipitations  Vent > 20 kt
SIGMETs :   Divers  Orages  Givrage  Turbulence  Onde Orograph.  Cendres Volcan.






- Altitude de l'aérodrome : 876 ft
- Code IATA : MBX


LJMB - Maribor

DERNIER METAR :
  • 240600Z 06003KT 340V110 9999 -RA NSC 08/04 Q1020

METARs EXPIRÉS :
  • 240530Z 08005KT 030V100 CAVOK 09/04 Q1019
  • 240500Z 08007KT 040V100 CAVOK 09/03 Q1018
  • 240430Z AUTO 34003KT 9999 NSC 04/03 Q1016
  • 240400Z AUTO VRB01KT 9999 NSC 04/02 Q1015
  • 240330Z AUTO 00000KT 8000 NSC 04/02 Q1014

TAF TAF LJMB
Valide du 24 à 06h jusqu'au 25 à 06h UTC


240500Z 2406/2506 36005KT CAVOK
TEMPO 2406/2410 36010KT
TEMPO 2406/2418 BKN035
BECMG 2415/2417 19005KT
TEMPO 2416/2506 20010KT



MET'MAP, la Météo Aéronautique d'un coup d'oeil ! - Copyright ORBIFLY Décembre 2007 - Disclaimer

ORBIFLY MET'MAP TEAM :

Programmation & Développement : Alexandra Zaïnal
Sur une idée originale de : Baudouin d'Aumeries
Assistance à la programmation : Marc-Olivier Méhu
Soutien technique & logistique : Manuel Goepfert

Contact : metmap@orbifly.com




SOURCES & CREDITS :

   NOAA